Carnival Pride — H3VU — position and weather

sailwx.info

Track history (hours):
 
Tides and Currents Weather Stations Pressure Air Temp Water Temp Dewpoint Dewpoint Depression Visibility Wind Speed Wind Dir Waves Ship Positions

Carnival Pride

Operator: Carnival Cruise Lines

Last reported at 2014-Nov-24 01:32 UTC. Time now 2014-Nov-24 02:29 UTC.
Position N 27°57' W 082°27'.

Type: Ship. MMSI: 354215000.

Date/timePositionNaut miles runAvg speedWind from/ knotsBaromVisibWave heightAir tempDewpointWater temp
2014-Nov-24 01:32N 27°57' W 082°27'0 0.0
2014-Nov-24 00:32N 27°57' W 082°27'0 0.0
2014-Nov-23 23:32N 27°57' W 082°27'0 0.0
2014-Nov-23 22:29N 27°57' W 082°27'0 0.0
2014-Nov-23 21:32N 27°57' W 082°27'0 0.0
2014-Nov-23 20:32N 27°57' W 082°27'0 0.0
2014-Nov-23 19:32N 27°57' W 082°27'0 0.0
2014-Nov-23 18:32N 27°57' W 082°27'0 0.0
2014-Nov-23 17:32N 27°57' W 082°27'0 0.0
2014-Nov-23 16:32N 27°57' W 082°27'0 0.0
2014-Nov-23 15:29N 27°57' W 082°27'0 0.0
2014-Nov-23 14:32N 27°57' W 082°27'0 0.0
2014-Nov-23 13:32N 27°57' W 082°27'0 0.1
2014-Nov-23 12:33N 27°56' W 082°27'8 8.1
2014-Nov-23 11:33N 27°48' W 082°28'1413.7
2014-Nov-23 10:33N 27°38' W 082°38'1413.9
2014-Nov-23 09:33N 27°36' W 082°53'1211.7
2014-Nov-23 08:33N 27°29' W 083°04'  
2014-Nov-18 22:33N 20°26' W 087°03'5 4.9
2014-Nov-18 21:31N 20°29' W 086°59'0 0.0
2014-Nov-18 20:31N 20°29' W 086°59'0 0.0
2014-Nov-18 19:31N 20°29' W 086°59'0 0.0
2014-Nov-18 18:31N 20°29' W 086°59'0 0.0
2014-Nov-18 17:31N 20°29' W 086°59'0 0.0
2014-Nov-18 16:31N 20°29' W 086°59'0 0.0
2014-Nov-18 15:31N 20°29' W 086°59'0 0.0
2014-Nov-18 14:31N 20°29' W 086°59'0 0.0
2014-Nov-18 13:33N 20°29' W 086°59'4 4.4
2014-Nov-18 12:33N 20°33' W 086°58'10 7.3
2014-Nov-18 11:14N 20°41' W 086°52'42515.9
2014-Nov-17 08:33N 26°60' W 083°21'1917.9
2014-Nov-17 07:31N 27°16' W 083°12'1717.8
2014-Nov-17 06:33N 27°32' W 083°03'1515.4
2014-Nov-17 05:34N 27°37' W 082°46'1515.0
2014-Nov-17 04:33N 27°44' W 082°32'8 8.3
2014-Nov-17 03:33N 27°51' W 082°27'5 5.2
2014-Nov-17 02:32N 27°57' W 082°27'0 0.0
2014-Nov-17 01:29N 27°57' W 082°27'0 0.0
2014-Nov-17 00:32N 27°57' W 082°27'0 0.0
2014-Nov-16 23:32N 27°57' W 082°27'0 0.0
2014-Nov-16 22:32N 27°57' W 082°27'0 0.0
2014-Nov-16 21:29N 27°57' W 082°27'0 0.0
2014-Nov-16 20:32N 27°57' W 082°27'0 0.0
2014-Nov-16 19:29N 27°57' W 082°27'0 0.0
2014-Nov-16 18:32N 27°57' W 082°27'0 0.0
2014-Nov-16 17:32N 27°57' W 082°27'0 0.0
2014-Nov-16 16:33N 27°57' W 082°27'0 0.0
2014-Nov-16 15:33N 27°57' W 082°27'0 0.0
2014-Nov-16 14:33N 27°57' W 082°27'0 0.0
2014-Nov-16 13:33N 27°57' W 082°27'0 0.0
2014-Nov-16 12:33N 27°57' W 082°27'3 3.2
2014-Nov-16 11:33N 27°53' W 082°26'1313.2
2014-Nov-16 10:34N 27°42' W 082°33'1515.1
2014-Nov-16 09:33N 27°36' W 082°49'1312.5
2014-Nov-16 08:33N 27°33' W 083°03'1715.6
2014-Nov-16 07:28N 27°16' W 083°09'  
Track history (hours):
 
Tides and Currents Weather Stations Pressure Air Temp Water Temp Dewpoint Dewpoint Depression Visibility Wind Speed Wind Dir Waves Ship Positions

Carnival Pride

Operator: Carnival Cruise Lines

Last reported at 2014-Nov-24 01:32 UTC. Time now 2014-Nov-24 02:29 UTC.
Position N 27°57' W 082°27'.

Type: Ship. MMSI: 354215000.

Date/timePositionNaut miles runAvg speedWind from/ knotsBaromVisibWave heightAir tempDewpointWater temp
2014-Nov-24 01:32N 27°57' W 082°27'0 0.0
2014-Nov-24 00:32N 27°57' W 082°27'0 0.0
2014-Nov-23 23:32N 27°57' W 082°27'0 0.0
2014-Nov-23 22:29N 27°57' W 082°27'0 0.0
2014-Nov-23 21:32N 27°57' W 082°27'0 0.0
2014-Nov-23 20:32N 27°57' W 082°27'0 0.0
2014-Nov-23 19:32N 27°57' W 082°27'0 0.0
2014-Nov-23 18:32N 27°57' W 082°27'0 0.0
2014-Nov-23 17:32N 27°57' W 082°27'0 0.0
2014-Nov-23 16:32N 27°57' W 082°27'0 0.0
2014-Nov-23 15:29N 27°57' W 082°27'0 0.0
2014-Nov-23 14:32N 27°57' W 082°27'0 0.0
2014-Nov-23 13:32N 27°57' W 082°27'0 0.1
2014-Nov-23 12:33N 27°56' W 082°27'8 8.1
2014-Nov-23 11:33N 27°48' W 082°28'1413.7
2014-Nov-23 10:33N 27°38' W 082°38'1413.9
2014-Nov-23 09:33N 27°36' W 082°53'1211.7
2014-Nov-23 08:33N 27°29' W 083°04'  
2014-Nov-18 22:33N 20°26' W 087°03'5 4.9
2014-Nov-18 21:31N 20°29' W 086°59'0 0.0
2014-Nov-18 20:31N 20°29' W 086°59'0 0.0
2014-Nov-18 19:31N 20°29' W 086°59'0 0.0
2014-Nov-18 18:31N 20°29' W 086°59'0 0.0
2014-Nov-18 17:31N 20°29' W 086°59'0 0.0
2014-Nov-18 16:31N 20°29' W 086°59'0 0.0
2014-Nov-18 15:31N 20°29' W 086°59'0 0.0
2014-Nov-18 14:31N 20°29' W 086°59'0 0.0
2014-Nov-18 13:33N 20°29' W 086°59'4 4.4
2014-Nov-18 12:33N 20°33' W 086°58'10 7.3
2014-Nov-18 11:14N 20°41' W 086°52'42515.9
2014-Nov-17 08:33N 26°60' W 083°21'1917.9
2014-Nov-17 07:31N 27°16' W 083°12'1717.8
2014-Nov-17 06:33N 27°32' W 083°03'1515.4
2014-Nov-17 05:34N 27°37' W 082°46'1515.0
2014-Nov-17 04:33N 27°44' W 082°32'8 8.3
2014-Nov-17 03:33N 27°51' W 082°27'5 5.2
2014-Nov-17 02:32N 27°57' W 082°27'0 0.0
2014-Nov-17 01:29N 27°57' W 082°27'0 0.0
2014-Nov-17 00:32N 27°57' W 082°27'0 0.0
2014-Nov-16 23:32N 27°57' W 082°27'0 0.0
2014-Nov-16 22:32N 27°57' W 082°27'0 0.0
2014-Nov-16 21:29N 27°57' W 082°27'0 0.0
2014-Nov-16 20:32N 27°57' W 082°27'0 0.0
2014-Nov-16 19:29N 27°57' W 082°27'0 0.0
2014-Nov-16 18:32N 27°57' W 082°27'0 0.0
2014-Nov-16 17:32N 27°57' W 082°27'0 0.0
2014-Nov-16 16:33N 27°57' W 082°27'0 0.0
2014-Nov-16 15:33N 27°57' W 082°27'0 0.0
2014-Nov-16 14:33N 27°57' W 082°27'0 0.0
2014-Nov-16 13:33N 27°57' W 082°27'0 0.0
2014-Nov-16 12:33N 27°57' W 082°27'3 3.2
2014-Nov-16 11:33N 27°53' W 082°26'1313.2
2014-Nov-16 10:34N 27°42' W 082°33'1515.1
2014-Nov-16 09:33N 27°36' W 082°49'1312.5
2014-Nov-16 08:33N 27°33' W 083°03'1715.6
2014-Nov-16 07:28N 27°16' W 083°09'  

Dump ship's entire track history